sensor_id;sensor_type;location;lat;lon;timestamp;P1;durP1;ratioP1;P2;durP2;ratioP2
315;SDS011;14128;48.686;9.738;2024-03-06T00:00:52;32.13;;;22.87;;
315;SDS011;14128;48.686;9.738;2024-03-06T00:03:19;33.47;;;21.70;;
315;SDS011;14128;48.686;9.738;2024-03-06T00:05:47;29.83;;;21.90;;
315;SDS011;14128;48.686;9.738;2024-03-06T00:08:14;38.73;;;20.53;;
315;SDS011;14128;48.686;9.738;2024-03-06T00:10:42;30.70;;;20.30;;
315;SDS011;14128;48.686;9.738;2024-03-06T00:13:10;24.63;;;18.73;;
315;SDS011;14128;48.686;9.738;2024-03-06T00:15:37;32.13;;;19.07;;
315;SDS011;14128;48.686;9.738;2024-03-06T00:18:04;26.53;;;17.80;;
315;SDS011;14128;48.686;9.738;2024-03-06T00:20:32;27.03;;;19.50;;
315;SDS011;14128;48.686;9.738;2024-03-06T00:22:59;27.00;;;20.07;;
315;SDS011;14128;48.686;9.738;2024-03-06T00:25:26;32.00;;;20.00;;
315;SDS011;14128;48.686;9.738;2024-03-06T00:27:54;31.63;;;21.47;;
315;SDS011;14128;48.686;9.738;2024-03-06T00:30:21;27.60;;;19.53;;
315;SDS011;14128;48.686;9.738;2024-03-06T00:32:48;30.93;;;21.20;;
315;SDS011;14128;48.686;9.738;2024-03-06T00:35:16;37.07;;;21.47;;
315;SDS011;14128;48.686;9.738;2024-03-06T00:37:44;29.73;;;21.40;;
315;SDS011;14128;48.686;9.738;2024-03-06T00:40:12;34.50;;;21.87;;
315;SDS011;14128;48.686;9.738;2024-03-06T00:42:39;32.77;;;21.73;;
315;SDS011;14128;48.686;9.738;2024-03-06T00:45:08;29.33;;;22.20;;
315;SDS011;14128;48.686;9.738;2024-03-06T00:47:36;33.10;;;22.00;;
315;SDS011;14128;48.686;9.738;2024-03-06T00:50:03;34.70;;;22.47;;
315;SDS011;14128;48.686;9.738;2024-03-06T00:52:32;33.17;;;23.30;;
315;SDS011;14128;48.686;9.738;2024-03-06T00:54:59;32.40;;;21.67;;
315;SDS011;14128;48.686;9.738;2024-03-06T00:57:26;32.97;;;22.93;;
315;SDS011;14128;48.686;9.738;2024-03-06T00:59:53;30.83;;;22.20;;
315;SDS011;14128;48.686;9.738;2024-03-06T01:02:22;33.50;;;22.90;;
315;SDS011;14128;48.686;9.738;2024-03-06T01:04:49;35.17;;;22.60;;
315;SDS011;14128;48.686;9.738;2024-03-06T01:07:16;38.47;;;24.77;;
315;SDS011;14128;48.686;9.738;2024-03-06T01:09:43;34.53;;;23.40;;
315;SDS011;14128;48.686;9.738;2024-03-06T01:12:10;29.50;;;22.27;;
315;SDS011;14128;48.686;9.738;2024-03-06T01:14:38;41.20;;;26.70;;
315;SDS011;14128;48.686;9.738;2024-03-06T01:17:05;39.07;;;24.73;;
315;SDS011;14128;48.686;9.738;2024-03-06T01:19:33;36.30;;;24.80;;
315;SDS011;14128;48.686;9.738;2024-03-06T01:22:00;47.63;;;28.50;;
315;SDS011;14128;48.686;9.738;2024-03-06T01:24:27;43.27;;;26.87;;
315;SDS011;14128;48.686;9.738;2024-03-06T01:26:54;45.30;;;28.03;;
315;SDS011;14128;48.686;9.738;2024-03-06T01:29:22;44.43;;;27.50;;
315;SDS011;14128;48.686;9.738;2024-03-06T01:31:49;49.80;;;29.47;;
315;SDS011;14128;48.686;9.738;2024-03-06T01:34:17;42.60;;;27.07;;
315;SDS011;14128;48.686;9.738;2024-03-06T01:36:45;45.80;;;29.23;;
315;SDS011;14128;48.686;9.738;2024-03-06T01:39:12;34.70;;;23.87;;
315;SDS011;14128;48.686;9.738;2024-03-06T01:41:44;42.10;;;24.30;;
315;SDS011;14128;48.686;9.738;2024-03-06T01:44:11;43.13;;;25.90;;
315;SDS011;14128;48.686;9.738;2024-03-06T01:46:39;49.77;;;28.23;;
315;SDS011;14128;48.686;9.738;2024-03-06T01:49:06;41.13;;;26.47;;
315;SDS011;14128;48.686;9.738;2024-03-06T01:51:33;42.33;;;27.03;;
315;SDS011;14128;48.686;9.738;2024-03-06T01:54:01;40.53;;;29.47;;
315;SDS011;14128;48.686;9.738;2024-03-06T01:56:30;41.27;;;26.60;;
315;SDS011;14128;48.686;9.738;2024-03-06T01:58:58;41.13;;;25.90;;
315;SDS011;14128;48.686;9.738;2024-03-06T02:01:25;48.53;;;29.07;;
315;SDS011;14128;48.686;9.738;2024-03-06T02:03:52;44.77;;;27.53;;
315;SDS011;14128;48.686;9.738;2024-03-06T02:06:20;42.60;;;27.17;;
315;SDS011;14128;48.686;9.738;2024-03-06T02:08:48;42.23;;;27.90;;
315;SDS011;14128;48.686;9.738;2024-03-06T02:11:16;42.47;;;25.30;;
315;SDS011;14128;48.686;9.738;2024-03-06T02:13:43;41.40;;;24.97;;
315;SDS011;14128;48.686;9.738;2024-03-06T02:16:11;41.60;;;24.67;;
315;SDS011;14128;48.686;9.738;2024-03-06T02:18:49;32.83;;;23.90;;
315;SDS011;14128;48.686;9.738;2024-03-06T02:21:19;39.03;;;25.27;;
315;SDS011;14128;48.686;9.738;2024-03-06T02:23:46;37.20;;;24.80;;
315;SDS011;14128;48.686;9.738;2024-03-06T02:26:14;35.67;;;23.37;;
315;SDS011;14128;48.686;9.738;2024-03-06T02:28:46;38.63;;;25.63;;
315;SDS011;14128;48.686;9.738;2024-03-06T02:31:13;37.40;;;23.17;;
315;SDS011;14128;48.686;9.738;2024-03-06T02:33:40;33.90;;;23.47;;
315;SDS011;14128;48.686;9.738;2024-03-06T02:36:07;31.63;;;24.30;;
315;SDS011;14128;48.686;9.738;2024-03-06T02:38:36;37.10;;;24.00;;
315;SDS011;14128;48.686;9.738;2024-03-06T02:41:03;38.70;;;24.73;;
315;SDS011;14128;48.686;9.738;2024-03-06T02:43:31;31.87;;;22.73;;
315;SDS011;14128;48.686;9.738;2024-03-06T02:45:59;31.87;;;23.50;;
315;SDS011;14128;48.686;9.738;2024-03-06T02:48:26;38.07;;;25.87;;
315;SDS011;14128;48.686;9.738;2024-03-06T02:50:53;34.00;;;21.00;;
315;SDS011;14128;48.686;9.738;2024-03-06T02:53:20;30.77;;;21.80;;
315;SDS011;14128;48.686;9.738;2024-03-06T02:55:49;29.67;;;22.93;;
315;SDS011;14128;48.686;9.738;2024-03-06T02:58:16;38.50;;;24.67;;
315;SDS011;14128;48.686;9.738;2024-03-06T03:00:43;33.53;;;25.03;;
315;SDS011;14128;48.686;9.738;2024-03-06T03:03:10;33.60;;;23.07;;
315;SDS011;14128;48.686;9.738;2024-03-06T03:05:38;32.20;;;23.80;;
315;SDS011;14128;48.686;9.738;2024-03-06T03:08:05;37.77;;;26.60;;
315;SDS011;14128;48.686;9.738;2024-03-06T03:10:33;38.10;;;26.00;;
315;SDS011;14128;48.686;9.738;2024-03-06T03:13:02;35.10;;;25.57;;
315;SDS011;14128;48.686;9.738;2024-03-06T03:15:30;33.73;;;25.67;;
315;SDS011;14128;48.686;9.738;2024-03-06T03:17:57;31.77;;;24.80;;
315;SDS011;14128;48.686;9.738;2024-03-06T03:20:25;33.00;;;24.70;;
315;SDS011;14128;48.686;9.738;2024-03-06T03:22:52;32.43;;;23.30;;
315;SDS011;14128;48.686;9.738;2024-03-06T03:25:19;32.53;;;22.97;;
315;SDS011;14128;48.686;9.738;2024-03-06T03:27:47;31.73;;;24.00;;
315;SDS011;14128;48.686;9.738;2024-03-06T03:30:17;34.00;;;22.67;;
315;SDS011;14128;48.686;9.738;2024-03-06T03:32:46;31.93;;;23.10;;
315;SDS011;14128;48.686;9.738;2024-03-06T03:35:13;35.03;;;23.37;;
315;SDS011;14128;48.686;9.738;2024-03-06T03:37:42;33.43;;;23.87;;
315;SDS011;14128;48.686;9.738;2024-03-06T03:40:10;38.97;;;25.57;;
315;SDS011;14128;48.686;9.738;2024-03-06T03:42:37;34.87;;;22.30;;
315;SDS011;14128;48.686;9.738;2024-03-06T03:45:04;37.10;;;23.27;;
315;SDS011;14128;48.686;9.738;2024-03-06T03:47:33;25.73;;;20.63;;
315;SDS011;14128;48.686;9.738;2024-03-06T03:50:00;32.77;;;24.80;;
315;SDS011;14128;48.686;9.738;2024-03-06T03:52:28;33.00;;;23.97;;
315;SDS011;14128;48.686;9.738;2024-03-06T03:54:55;33.00;;;22.80;;
315;SDS011;14128;48.686;9.738;2024-03-06T03:57:22;32.20;;;23.80;;
315;SDS011;14128;48.686;9.738;2024-03-06T03:59:49;30.40;;;24.57;;
315;SDS011;14128;48.686;9.738;2024-03-06T04:02:17;29.50;;;22.80;;
315;SDS011;14128;48.686;9.738;2024-03-06T04:04:45;31.23;;;22.77;;
315;SDS011;14128;48.686;9.738;2024-03-06T04:07:12;27.77;;;21.37;;
315;SDS011;14128;48.686;9.738;2024-03-06T04:09:41;26.37;;;22.13;;
315;SDS011;14128;48.686;9.738;2024-03-06T04:12:08;30.33;;;22.03;;
315;SDS011;14128;48.686;9.738;2024-03-06T04:14:35;27.30;;;21.50;;
315;SDS011;14128;48.686;9.738;2024-03-06T04:17:02;30.87;;;21.17;;
315;SDS011;14128;48.686;9.738;2024-03-06T04:19:30;35.93;;;23.20;;
315;SDS011;14128;48.686;9.738;2024-03-06T04:21:59;33.27;;;22.53;;
315;SDS011;14128;48.686;9.738;2024-03-06T04:24:26;29.20;;;20.00;;
315;SDS011;14128;48.686;9.738;2024-03-06T04:26:54;31.87;;;23.40;;
315;SDS011;14128;48.686;9.738;2024-03-06T04:29:21;27.07;;;21.70;;
315;SDS011;14128;48.686;9.738;2024-03-06T04:31:48;27.70;;;20.40;;
315;SDS011;14128;48.686;9.738;2024-03-06T04:34:15;25.70;;;18.50;;
315;SDS011;14128;48.686;9.738;2024-03-06T04:36:42;31.77;;;18.57;;
315;SDS011;14128;48.686;9.738;2024-03-06T04:39:11;30.60;;;20.60;;
315;SDS011;14128;48.686;9.738;2024-03-06T04:41:38;27.80;;;19.53;;
315;SDS011;14128;48.686;9.738;2024-03-06T04:44:05;26.30;;;19.50;;
315;SDS011;14128;48.686;9.738;2024-03-06T04:46:32;28.33;;;20.90;;
315;SDS011;14128;48.686;9.738;2024-03-06T04:48:59;25.67;;;17.90;;
315;SDS011;14128;48.686;9.738;2024-03-06T04:51:27;32.43;;;20.30;;
315;SDS011;14128;48.686;9.738;2024-03-06T04:53:54;26.67;;;18.47;;
315;SDS011;14128;48.686;9.738;2024-03-06T04:56:22;46.83;;;21.60;;
315;SDS011;14128;48.686;9.738;2024-03-06T04:58:49;25.60;;;18.43;;
315;SDS011;14128;48.686;9.738;2024-03-06T05:01:18;25.90;;;19.37;;
315;SDS011;14128;48.686;9.738;2024-03-06T05:03:46;24.07;;;17.70;;
315;SDS011;14128;48.686;9.738;2024-03-06T05:06:14;27.87;;;17.63;;
315;SDS011;14128;48.686;9.738;2024-03-06T05:08:41;20.70;;;16.03;;
315;SDS011;14128;48.686;9.738;2024-03-06T05:11:08;27.23;;;18.03;;
315;SDS011;14128;48.686;9.738;2024-03-06T05:13:37;21.53;;;16.40;;
315;SDS011;14128;48.686;9.738;2024-03-06T05:16:04;26.67;;;17.60;;
315;SDS011;14128;48.686;9.738;2024-03-06T05:18:33;25.10;;;18.80;;
315;SDS011;14128;48.686;9.738;2024-03-06T05:21:01;30.43;;;20.97;;
315;SDS011;14128;48.686;9.738;2024-03-06T05:23:28;31.20;;;20.80;;
315;SDS011;14128;48.686;9.738;2024-03-06T05:25:55;26.37;;;18.33;;
315;SDS011;14128;48.686;9.738;2024-03-06T05:28:22;25.03;;;19.40;;
315;SDS011;14128;48.686;9.738;2024-03-06T05:30:51;36.30;;;21.37;;
315;SDS011;14128;48.686;9.738;2024-03-06T05:33:18;53.83;;;30.30;;
315;SDS011;14128;48.686;9.738;2024-03-06T05:35:46;83.23;;;46.20;;
315;SDS011;14128;48.686;9.738;2024-03-06T05:38:14;61.07;;;37.07;;
315;SDS011;14128;48.686;9.738;2024-03-06T05:40:41;36.73;;;27.17;;
315;SDS011;14128;48.686;9.738;2024-03-06T05:43:10;34.20;;;23.97;;
315;SDS011;14128;48.686;9.738;2024-03-06T05:45:38;34.43;;;21.67;;
315;SDS011;14128;48.686;9.738;2024-03-06T05:48:22;28.97;;;21.70;;
315;SDS011;14128;48.686;9.738;2024-03-06T05:50:50;31.93;;;22.37;;
315;SDS011;14128;48.686;9.738;2024-03-06T05:53:17;30.80;;;21.60;;
315;SDS011;14128;48.686;9.738;2024-03-06T05:55:44;31.33;;;24.13;;
315;SDS011;14128;48.686;9.738;2024-03-06T05:58:11;28.23;;;21.27;;
315;SDS011;14128;48.686;9.738;2024-03-06T06:00:39;28.20;;;20.63;;
315;SDS011;14128;48.686;9.738;2024-03-06T06:03:07;29.40;;;22.90;;
315;SDS011;14128;48.686;9.738;2024-03-06T06:05:37;27.77;;;18.70;;
315;SDS011;14128;48.686;9.738;2024-03-06T06:08:05;37.83;;;21.53;;
315;SDS011;14128;48.686;9.738;2024-03-06T06:10:32;35.37;;;24.03;;
315;SDS011;14128;48.686;9.738;2024-03-06T06:13:00;30.70;;;22.13;;
315;SDS011;14128;48.686;9.738;2024-03-06T06:15:29;30.17;;;20.87;;
315;SDS011;14128;48.686;9.738;2024-03-06T06:17:56;34.63;;;20.77;;
315;SDS011;14128;48.686;9.738;2024-03-06T06:20:23;28.63;;;22.10;;
315;SDS011;14128;48.686;9.738;2024-03-06T06:22:52;41.67;;;25.77;;
315;SDS011;14128;48.686;9.738;2024-03-06T06:25:19;30.80;;;21.20;;
315;SDS011;14128;48.686;9.738;2024-03-06T06:27:46;34.40;;;21.60;;
315;SDS011;14128;48.686;9.738;2024-03-06T06:30:14;26.80;;;19.10;;
315;SDS011;14128;48.686;9.738;2024-03-06T06:32:41;31.47;;;22.90;;
315;SDS011;14128;48.686;9.738;2024-03-06T06:35:09;31.33;;;20.43;;
315;SDS011;14128;48.686;9.738;2024-03-06T06:37:36;35.73;;;23.07;;
315;SDS011;14128;48.686;9.738;2024-03-06T06:40:06;30.40;;;19.70;;
315;SDS011;14128;48.686;9.738;2024-03-06T06:42:34;28.47;;;21.17;;
315;SDS011;14128;48.686;9.738;2024-03-06T06:45:01;32.97;;;20.97;;
315;SDS011;14128;48.686;9.738;2024-03-06T06:47:28;35.07;;;21.47;;
315;SDS011;14128;48.686;9.738;2024-03-06T06:49:55;30.87;;;20.90;;
315;SDS011;14128;48.686;9.738;2024-03-06T06:52:22;34.13;;;21.23;;
315;SDS011;14128;48.686;9.738;2024-03-06T06:54:52;29.03;;;20.30;;
315;SDS011;14128;48.686;9.738;2024-03-06T06:57:22;24.10;;;19.20;;
315;SDS011;14128;48.686;9.738;2024-03-06T06:59:49;31.23;;;21.27;;
315;SDS011;14128;48.686;9.738;2024-03-06T07:02:16;32.93;;;22.23;;
315;SDS011;14128;48.686;9.738;2024-03-06T07:04:43;35.00;;;23.80;;
315;SDS011;14128;48.686;9.738;2024-03-06T07:07:10;33.17;;;22.60;;
315;SDS011;14128;48.686;9.738;2024-03-06T07:09:38;35.47;;;23.60;;
315;SDS011;14128;48.686;9.738;2024-03-06T07:12:06;39.40;;;27.43;;
315;SDS011;14128;48.686;9.738;2024-03-06T07:14:35;41.90;;;27.07;;
315;SDS011;14128;48.686;9.738;2024-03-06T07:17:02;33.70;;;20.40;;
315;SDS011;14128;48.686;9.738;2024-03-06T07:19:29;39.30;;;23.57;;
315;SDS011;14128;48.686;9.738;2024-03-06T07:21:56;30.10;;;21.07;;
315;SDS011;14128;48.686;9.738;2024-03-06T07:24:24;33.17;;;20.97;;
315;SDS011;14128;48.686;9.738;2024-03-06T07:26:51;38.10;;;22.10;;
315;SDS011;14128;48.686;9.738;2024-03-06T07:29:18;36.33;;;21.20;;
315;SDS011;14128;48.686;9.738;2024-03-06T07:31:46;30.83;;;21.07;;
315;SDS011;14128;48.686;9.738;2024-03-06T07:34:13;36.63;;;22.97;;
315;SDS011;14128;48.686;9.738;2024-03-06T07:36:41;32.27;;;22.03;;
315;SDS011;14128;48.686;9.738;2024-03-06T07:39:08;31.40;;;20.93;;
315;SDS011;14128;48.686;9.738;2024-03-06T07:41:37;33.60;;;21.43;;
315;SDS011;14128;48.686;9.738;2024-03-06T07:44:04;34.50;;;22.53;;
315;SDS011;14128;48.686;9.738;2024-03-06T07:46:33;30.37;;;22.00;;
315;SDS011;14128;48.686;9.738;2024-03-06T07:49:01;31.13;;;22.10;;
315;SDS011;14128;48.686;9.738;2024-03-06T07:51:30;31.27;;;22.13;;
315;SDS011;14128;48.686;9.738;2024-03-06T07:53:57;31.77;;;20.93;;
315;SDS011;14128;48.686;9.738;2024-03-06T07:56:24;28.73;;;20.70;;
315;SDS011;14128;48.686;9.738;2024-03-06T07:58:52;33.97;;;23.43;;
315;SDS011;14128;48.686;9.738;2024-03-06T08:01:19;31.37;;;20.73;;
315;SDS011;14128;48.686;9.738;2024-03-06T08:03:46;34.30;;;20.30;;
315;SDS011;14128;48.686;9.738;2024-03-06T08:06:15;32.80;;;21.60;;
315;SDS011;14128;48.686;9.738;2024-03-06T08:08:42;31.93;;;21.33;;
315;SDS011;14128;48.686;9.738;2024-03-06T08:11:10;31.90;;;20.43;;
315;SDS011;14128;48.686;9.738;2024-03-06T08:13:37;31.77;;;20.50;;
315;SDS011;14128;48.686;9.738;2024-03-06T08:16:05;29.43;;;20.67;;
315;SDS011;14128;48.686;9.738;2024-03-06T08:18:32;25.57;;;19.97;;
315;SDS011;14128;48.686;9.738;2024-03-06T08:20:59;33.43;;;21.23;;
315;SDS011;14128;48.686;9.738;2024-03-06T08:23:28;29.47;;;20.40;;
315;SDS011;14128;48.686;9.738;2024-03-06T08:25:56;39.90;;;25.13;;
315;SDS011;14128;48.686;9.738;2024-03-06T08:28:24;32.20;;;21.77;;
315;SDS011;14128;48.686;9.738;2024-03-06T08:30:51;36.10;;;21.23;;
315;SDS011;14128;48.686;9.738;2024-03-06T08:33:19;29.30;;;20.40;;
315;SDS011;14128;48.686;9.738;2024-03-06T08:35:47;39.70;;;24.10;;
315;SDS011;14128;48.686;9.738;2024-03-06T08:38:14;36.37;;;22.03;;
315;SDS011;14128;48.686;9.738;2024-03-06T08:40:43;32.63;;;20.30;;
315;SDS011;14128;48.686;9.738;2024-03-06T08:43:11;32.00;;;20.40;;
315;SDS011;14128;48.686;9.738;2024-03-06T08:45:40;36.50;;;20.33;;
315;SDS011;14128;48.686;9.738;2024-03-06T08:48:08;30.30;;;19.67;;
315;SDS011;14128;48.686;9.738;2024-03-06T08:50:35;32.60;;;21.37;;
315;SDS011;14128;48.686;9.738;2024-03-06T08:53:02;30.20;;;20.57;;
315;SDS011;14128;48.686;9.738;2024-03-06T08:55:29;34.07;;;22.77;;
315;SDS011;14128;48.686;9.738;2024-03-06T08:57:58;34.23;;;19.77;;
315;SDS011;14128;48.686;9.738;2024-03-06T09:00:26;25.57;;;17.77;;
315;SDS011;14128;48.686;9.738;2024-03-06T09:02:53;30.00;;;20.03;;
315;SDS011;14128;48.686;9.738;2024-03-06T09:05:20;31.50;;;20.33;;
315;SDS011;14128;48.686;9.738;2024-03-06T09:07:47;35.73;;;22.00;;
315;SDS011;14128;48.686;9.738;2024-03-06T09:10:14;36.40;;;20.73;;
315;SDS011;14128;48.686;9.738;2024-03-06T09:12:44;29.63;;;21.20;;
315;SDS011;14128;48.686;9.738;2024-03-06T09:15:13;32.87;;;20.40;;
315;SDS011;14128;48.686;9.738;2024-03-06T09:17:41;35.20;;;21.97;;
315;SDS011;14128;48.686;9.738;2024-03-06T09:20:10;32.27;;;20.67;;
315;SDS011;14128;48.686;9.738;2024-03-06T09:22:37;30.43;;;20.30;;
315;SDS011;14128;48.686;9.738;2024-03-06T09:25:05;30.30;;;18.30;;
315;SDS011;14128;48.686;9.738;2024-03-06T09:27:32;29.37;;;17.93;;
315;SDS011;14128;48.686;9.738;2024-03-06T09:29:59;30.57;;;18.37;;
315;SDS011;14128;48.686;9.738;2024-03-06T09:32:29;29.97;;;18.37;;
315;SDS011;14128;48.686;9.738;2024-03-06T09:34:56;30.07;;;19.50;;
315;SDS011;14128;48.686;9.738;2024-03-06T09:37:23;29.20;;;19.70;;
315;SDS011;14128;48.686;9.738;2024-03-06T09:39:51;33.70;;;21.70;;
315;SDS011;14128;48.686;9.738;2024-03-06T09:42:18;27.67;;;19.17;;
315;SDS011;14128;48.686;9.738;2024-03-06T09:44:45;26.50;;;18.20;;
315;SDS011;14128;48.686;9.738;2024-03-06T09:47:13;30.53;;;19.93;;
315;SDS011;14128;48.686;9.738;2024-03-06T09:49:42;35.47;;;20.80;;
315;SDS011;14128;48.686;9.738;2024-03-06T09:52:09;28.83;;;18.73;;
315;SDS011;14128;48.686;9.738;2024-03-06T09:54:36;31.17;;;20.67;;
315;SDS011;14128;48.686;9.738;2024-03-06T09:57:04;28.80;;;19.50;;
315;SDS011;14128;48.686;9.738;2024-03-06T09:59:32;28.73;;;18.97;;
315;SDS011;14128;48.686;9.738;2024-03-06T10:02:00;32.80;;;20.83;;
315;SDS011;14128;48.686;9.738;2024-03-06T10:04:28;29.43;;;17.60;;
315;SDS011;14128;48.686;9.738;2024-03-06T10:06:57;29.40;;;18.67;;
315;SDS011;14128;48.686;9.738;2024-03-06T10:09:25;31.40;;;19.93;;
315;SDS011;14128;48.686;9.738;2024-03-06T10:11:53;29.07;;;18.00;;
315;SDS011;14128;48.686;9.738;2024-03-06T10:14:22;35.80;;;18.87;;
315;SDS011;14128;48.686;9.738;2024-03-06T10:16:52;29.87;;;18.17;;
315;SDS011;14128;48.686;9.738;2024-03-06T10:19:21;29.10;;;19.30;;
315;SDS011;14128;48.686;9.738;2024-03-06T10:21:49;36.10;;;20.40;;
315;SDS011;14128;48.686;9.738;2024-03-06T10:24:19;34.40;;;19.50;;
315;SDS011;14128;48.686;9.738;2024-03-06T10:26:46;29.00;;;19.03;;
315;SDS011;14128;48.686;9.738;2024-03-06T10:29:15;27.80;;;17.60;;
315;SDS011;14128;48.686;9.738;2024-03-06T10:31:47;36.70;;;21.40;;
315;SDS011;14128;48.686;9.738;2024-03-06T10:34:14;32.40;;;18.33;;
315;SDS011;14128;48.686;9.738;2024-03-06T10:36:41;29.10;;;20.60;;
315;SDS011;14128;48.686;9.738;2024-03-06T10:39:10;30.10;;;19.80;;
315;SDS011;14128;48.686;9.738;2024-03-06T10:41:39;34.87;;;20.67;;
315;SDS011;14128;48.686;9.738;2024-03-06T10:44:08;31.20;;;20.33;;
315;SDS011;14128;48.686;9.738;2024-03-06T10:46:39;34.70;;;21.67;;
315;SDS011;14128;48.686;9.738;2024-03-06T10:49:07;26.17;;;18.27;;
315;SDS011;14128;48.686;9.738;2024-03-06T10:51:36;29.80;;;16.27;;
315;SDS011;14128;48.686;9.738;2024-03-06T10:54:04;36.40;;;19.57;;
315;SDS011;14128;48.686;9.738;2024-03-06T10:56:32;28.57;;;17.53;;
315;SDS011;14128;48.686;9.738;2024-03-06T10:59:00;32.90;;;21.33;;
315;SDS011;14128;48.686;9.738;2024-03-06T11:01:28;30.60;;;20.20;;
315;SDS011;14128;48.686;9.738;2024-03-06T11:03:57;31.87;;;21.07;;
315;SDS011;14128;48.686;9.738;2024-03-06T11:06:25;42.43;;;19.97;;
315;SDS011;14128;48.686;9.738;2024-03-06T11:08:52;37.70;;;20.67;;
315;SDS011;14128;48.686;9.738;2024-03-06T11:11:19;32.80;;;20.00;;
315;SDS011;14128;48.686;9.738;2024-03-06T11:13:47;34.90;;;20.27;;
315;SDS011;14128;48.686;9.738;2024-03-06T11:16:15;29.93;;;19.30;;
315;SDS011;14128;48.686;9.738;2024-03-06T11:18:43;34.33;;;22.03;;
315;SDS011;14128;48.686;9.738;2024-03-06T11:21:30;30.10;;;20.83;;
315;SDS011;14128;48.686;9.738;2024-03-06T11:26:55;32.57;;;22.23;;
315;SDS011;14128;48.686;9.738;2024-03-06T11:29:23;29.53;;;18.27;;
315;SDS011;14128;48.686;9.738;2024-03-06T11:32:05;29.10;;;19.33;;
315;SDS011;14128;48.686;9.738;2024-03-06T11:34:34;26.60;;;17.50;;
315;SDS011;14128;48.686;9.738;2024-03-06T11:37:05;28.03;;;16.90;;
315;SDS011;14128;48.686;9.738;2024-03-06T11:39:34;24.53;;;16.87;;
315;SDS011;14128;48.686;9.738;2024-03-06T11:42:02;32.60;;;19.77;;
315;SDS011;14128;48.686;9.738;2024-03-06T11:44:31;34.97;;;22.70;;
315;SDS011;14128;48.686;9.738;2024-03-06T11:46:58;31.03;;;20.13;;
315;SDS011;14128;48.686;9.738;2024-03-06T11:49:28;40.23;;;21.13;;
315;SDS011;14128;48.686;9.738;2024-03-06T11:51:57;37.17;;;22.27;;
315;SDS011;14128;48.686;9.738;2024-03-06T11:54:25;34.70;;;19.73;;
315;SDS011;14128;48.686;9.738;2024-03-06T11:56:53;26.33;;;17.90;;
315;SDS011;14128;48.686;9.738;2024-03-06T11:59:21;25.77;;;16.53;;
315;SDS011;14128;48.686;9.738;2024-03-06T12:01:49;27.50;;;16.60;;
315;SDS011;14128;48.686;9.738;2024-03-06T12:04:16;32.00;;;18.33;;
315;SDS011;14128;48.686;9.738;2024-03-06T12:06:46;26.13;;;18.07;;
315;SDS011;14128;48.686;9.738;2024-03-06T12:09:14;27.83;;;17.73;;
315;SDS011;14128;48.686;9.738;2024-03-06T12:11:41;24.90;;;17.27;;
315;SDS011;14128;48.686;9.738;2024-03-06T12:14:12;25.77;;;17.13;;
315;SDS011;14128;48.686;9.738;2024-03-06T12:16:41;27.40;;;17.20;;
315;SDS011;14128;48.686;9.738;2024-03-06T12:19:08;25.63;;;17.93;;
315;SDS011;14128;48.686;9.738;2024-03-06T12:21:35;23.50;;;17.90;;
315;SDS011;14128;48.686;9.738;2024-03-06T12:24:05;29.67;;;18.50;;
315;SDS011;14128;48.686;9.738;2024-03-06T12:26:33;27.43;;;19.57;;
315;SDS011;14128;48.686;9.738;2024-03-06T12:29:03;29.77;;;20.27;;
315;SDS011;14128;48.686;9.738;2024-03-06T12:31:31;33.20;;;21.67;;
315;SDS011;14128;48.686;9.738;2024-03-06T12:33:58;32.23;;;20.47;;
315;SDS011;14128;48.686;9.738;2024-03-06T12:36:27;29.73;;;19.87;;
315;SDS011;14128;48.686;9.738;2024-03-06T12:38:56;38.43;;;20.00;;
315;SDS011;14128;48.686;9.738;2024-03-06T12:41:24;30.37;;;20.67;;
315;SDS011;14128;48.686;9.738;2024-03-06T12:43:52;33.03;;;19.97;;
315;SDS011;14128;48.686;9.738;2024-03-06T12:46:20;37.67;;;21.40;;
315;SDS011;14128;48.686;9.738;2024-03-06T12:48:48;34.07;;;21.70;;
315;SDS011;14128;48.686;9.738;2024-03-06T12:51:15;41.23;;;20.47;;
315;SDS011;14128;48.686;9.738;2024-03-06T12:53:42;27.80;;;20.40;;
315;SDS011;14128;48.686;9.738;2024-03-06T12:56:09;33.57;;;21.90;;
315;SDS011;14128;48.686;9.738;2024-03-06T12:58:38;37.97;;;24.33;;
315;SDS011;14128;48.686;9.738;2024-03-06T13:01:05;35.70;;;24.03;;
315;SDS011;14128;48.686;9.738;2024-03-06T13:03:32;35.67;;;23.00;;
315;SDS011;14128;48.686;9.738;2024-03-06T13:05:59;36.27;;;22.43;;
315;SDS011;14128;48.686;9.738;2024-03-06T13:08:26;29.30;;;19.83;;
315;SDS011;14128;48.686;9.738;2024-03-06T13:10:53;31.50;;;19.53;;
315;SDS011;14128;48.686;9.738;2024-03-06T13:13:21;33.90;;;19.63;;
315;SDS011;14128;48.686;9.738;2024-03-06T13:15:51;31.90;;;22.00;;
315;SDS011;14128;48.686;9.738;2024-03-06T13:18:18;37.53;;;20.37;;
315;SDS011;14128;48.686;9.738;2024-03-06T13:20:45;28.43;;;19.43;;
315;SDS011;14128;48.686;9.738;2024-03-06T13:23:12;36.67;;;21.00;;
315;SDS011;14128;48.686;9.738;2024-03-06T13:25:39;31.27;;;19.47;;
315;SDS011;14128;48.686;9.738;2024-03-06T13:28:07;33.27;;;19.73;;
315;SDS011;14128;48.686;9.738;2024-03-06T13:30:34;32.40;;;20.43;;
315;SDS011;14128;48.686;9.738;2024-03-06T13:33:04;33.03;;;21.17;;
315;SDS011;14128;48.686;9.738;2024-03-06T13:35:32;28.00;;;18.53;;
315;SDS011;14128;48.686;9.738;2024-03-06T13:37:59;32.73;;;21.30;;
315;SDS011;14128;48.686;9.738;2024-03-06T13:40:28;31.33;;;20.00;;
315;SDS011;14128;48.686;9.738;2024-03-06T13:42:57;25.83;;;17.83;;
315;SDS011;14128;48.686;9.738;2024-03-06T13:45:24;28.73;;;19.17;;
315;SDS011;14128;48.686;9.738;2024-03-06T13:47:52;31.20;;;19.23;;
315;SDS011;14128;48.686;9.738;2024-03-06T13:50:20;29.10;;;17.73;;
315;SDS011;14128;48.686;9.738;2024-03-06T13:52:50;34.87;;;20.53;;
315;SDS011;14128;48.686;9.738;2024-03-06T13:55:17;29.27;;;19.47;;
315;SDS011;14128;48.686;9.738;2024-03-06T13:57:45;34.37;;;22.23;;
315;SDS011;14128;48.686;9.738;2024-03-06T14:00:12;31.00;;;19.20;;
315;SDS011;14128;48.686;9.738;2024-03-06T14:02:42;32.37;;;20.37;;
315;SDS011;14128;48.686;9.738;2024-03-06T14:05:10;30.53;;;19.73;;
315;SDS011;14128;48.686;9.738;2024-03-06T14:07:40;37.93;;;22.30;;
315;SDS011;14128;48.686;9.738;2024-03-06T14:10:07;34.47;;;20.57;;
315;SDS011;14128;48.686;9.738;2024-03-06T14:12:35;27.00;;;19.13;;
315;SDS011;14128;48.686;9.738;2024-03-06T14:15:03;31.20;;;18.90;;
315;SDS011;14128;48.686;9.738;2024-03-06T14:17:30;31.87;;;20.30;;
315;SDS011;14128;48.686;9.738;2024-03-06T14:19:57;39.90;;;21.30;;
315;SDS011;14128;48.686;9.738;2024-03-06T14:22:24;32.40;;;20.60;;
315;SDS011;14128;48.686;9.738;2024-03-06T14:24:53;35.33;;;20.23;;
315;SDS011;14128;48.686;9.738;2024-03-06T14:27:20;29.87;;;21.00;;
315;SDS011;14128;48.686;9.738;2024-03-06T14:29:47;28.00;;;19.00;;
315;SDS011;14128;48.686;9.738;2024-03-06T14:32:16;33.50;;;19.93;;
315;SDS011;14128;48.686;9.738;2024-03-06T14:34:45;29.73;;;18.63;;
315;SDS011;14128;48.686;9.738;2024-03-06T14:37:12;29.67;;;17.60;;
315;SDS011;14128;48.686;9.738;2024-03-06T14:39:39;35.43;;;20.87;;
315;SDS011;14128;48.686;9.738;2024-03-06T14:42:08;33.90;;;20.43;;
315;SDS011;14128;48.686;9.738;2024-03-06T14:44:35;42.07;;;26.37;;
315;SDS011;14128;48.686;9.738;2024-03-06T14:47:02;41.60;;;24.87;;
315;SDS011;14128;48.686;9.738;2024-03-06T14:49:30;36.03;;;22.03;;
315;SDS011;14128;48.686;9.738;2024-03-06T14:51:58;38.17;;;22.67;;
315;SDS011;14128;48.686;9.738;2024-03-06T14:54:25;35.63;;;24.33;;